Time;durP1;ratioP1;P1;durP2;ratioP2;P2;SDS_P1;SDS_P2;PMS_P1;PMS_P2;Temp;Humidity;BMP_temperature;BMP_pressure;BME280_temperature;BME280_humidity;BME280_pressure;Samples;Min_cycle;Max_cycle;Signal;HPM_P1;HPM_P2
2022/05/17 00:00:26;;;;;;;5.70;5.40;;;;;;;13.52;99.07;101492.06;6081035;23;20028;-73
2022/05/17 00:02:52;;;;;;;5.82;5.10;;;;;;;13.86;99.83;101565.03;6055866;23;20081;-73
2022/05/17 00:05:19;;;;;;;4.80;4.60;;;;;;;12.62;99.82;101371.84;6064217;23;20031;-72
2022/05/17 00:07:46;;;;;;;5.15;4.95;;;;;;;13.61;100.00;101527.66;6086407;23;20848;-73
2022/05/17 00:10:12;;;;;;;4.80;4.60;;;;;;;13.79;100.00;101566.31;6082010;23;20032;-73
2022/05/17 00:12:38;;;;;;;6.40;6.10;;;;;;;13.78;100.00;101564.59;6057654;23;20395;-74
2022/05/17 00:15:06;;;;;;;5.00;4.80;;;;;;;13.41;100.00;101505.81;6059961;23;20099;-73
2022/05/17 00:17:32;;;;;;;7.25;6.82;;;;;;;13.76;100.00;101555.91;6083542;23;20017;-74
2022/05/17 00:19:59;;;;;;;4.95;4.75;;;;;;;13.72;100.00;101557.00;6041176;23;20050;-74
2022/05/17 00:22:25;;;;;;;5.68;5.43;;;;;;;13.12;100.00;101465.09;6086380;23;20097;-73
2022/05/17 00:24:52;;;;;;;5.30;5.07;;;;;;;13.23;100.00;101491.75;6075171;23;20096;-74
2022/05/17 00:27:18;;;;;;;4.75;4.55;;;;;;;13.46;100.00;101524.03;6067648;23;20676;-75
2022/05/17 00:29:44;;;;;;;5.30;5.10;;;;;;;13.08;100.00;101460.91;6046324;23;20027;-73
2022/05/17 00:32:11;;;;;;;5.55;5.25;;;;;;;13.27;100.00;101495.06;6078443;23;20052;-71
2022/05/17 00:34:37;;;;;;;6.43;6.13;;;;;;;13.24;100.00;101497.88;6043872;23;20075;-74
2022/05/17 00:37:04;;;;;;;5.20;5.00;;;;;;;13.27;100.00;101501.22;6071159;23;20573;-74
2022/05/17 00:39:31;;;;;;;6.15;5.85;;;;;;;12.98;100.00;101458.72;6039866;23;20010;-73
2022/05/17 00:41:58;;;;;;;5.20;5.00;;;;;;;12.96;100.00;101452.66;6086670;23;20022;-73
2022/05/17 00:44:42;;;;;;;4.93;4.72;;;;;;;13.00;100.00;101469.19;6081831;23;20112;-73
2022/05/17 00:47:24;;;;;;;4.95;4.75;;;;;;;13.41;100.00;101531.31;6049110;23;20101;-74
2022/05/17 00:50:02;;;;;;;5.03;4.82;;;;;;;13.32;100.00;101535.28;6085568;23;20041;-72
2022/05/17 00:52:36;;;;;;;6.57;6.28;;;;;;;13.33;100.00;101539.59;6043828;23;20033;-73
2022/05/17 00:55:52;;;;;;;4.88;4.68;;;;;;;13.28;100.00;101541.59;6047132;23;20419;-73
2022/05/17 00:58:27;;;;;;;4.78;4.57;;;;;;;13.23;100.00;101538.34;6048049;23;20403;-72
2022/05/17 01:01:02;;;;;;;4.93;4.72;;;;;;;12.69;100.00;101459.31;6043158;23;20018;-74
2022/05/17 01:03:39;;;;;;;5.97;5.68;;;;;;;11.72;100.00;101300.78;6075716;23;20020;-73
2022/05/17 01:06:07;;;;;;;4.57;4.38;;;;;;;12.60;100.00;101462.41;6064680;23;20448;-74
2022/05/17 01:08:33;;;;;;;6.55;6.15;;;;;;;12.73;100.00;101498.59;6082333;23;20021;-73
2022/05/17 01:10:59;;;;;;;5.05;4.80;;;;;;;12.90;100.00;101529.38;6070476;23;20028;-74
2022/05/17 01:16:11;;;;;;;5.10;4.85;;;;;;;12.92;100.00;101550.38;6045284;23;20353;-75
2022/05/17 01:18:41;;;;;;;6.75;6.45;;;;;;;12.87;100.00;101547.09;6055891;23;20718;-73
2022/05/17 01:21:09;;;;;;;4.70;4.50;;;;;;;12.33;100.00;101466.28;6021610;23;20493;-75
2022/05/17 01:23:35;;;;;;;6.68;6.38;;;;;;;12.13;100.00;101438.28;6046227;23;20021;-74
2022/05/17 01:26:03;;;;;;;4.70;4.50;;;;;;;12.52;100.00;101508.38;6057119;23;20022;-74
2022/05/17 01:28:32;;;;;;;6.45;6.15;;;;;;;11.66;100.00;101374.69;6022888;23;20030;-73
2022/05/17 01:31:04;;;;;;;4.90;4.70;;;;;;;12.60;100.00;101529.06;6050551;23;20048;-74
2022/05/17 01:33:33;;;;;;;5.72;5.47;;;;;;;12.33;100.00;101497.88;6039912;23;20021;-72
2022/05/17 01:36:01;;;;;;;4.90;4.70;;;;;;;12.61;100.00;101538.69;6020071;23;20043;-74
2022/05/17 01:38:28;;;;;;;5.72;5.45;;;;;;;12.57;100.00;101548.50;6052735;23;20639;-74
2022/05/17 01:40:55;;;;;;;4.68;4.47;;;;;;;12.54;100.00;101563.59;6052709;23;20132;-73
2022/05/17 01:43:21;;;;;;;4.60;4.40;;;;;;;12.51;100.00;101540.91;6041419;23;20010;-74
2022/05/17 01:45:48;;;;;;;5.10;4.80;;;;;;;12.46;100.00;101553.41;6074215;23;20511;-73
2022/05/17 01:48:15;;;;;;;5.05;4.85;;;;;;;11.89;100.00;101460.44;6055629;23;20029;-72
2022/05/17 01:50:41;;;;;;;6.20;5.90;;;;;;;11.77;100.00;101440.78;6023427;23;20033;-73
2022/05/17 01:53:07;;;;;;;5.05;4.85;;;;;;;12.29;100.00;101543.69;6054810;23;20033;-74
2022/05/17 01:55:34;;;;;;;5.97;5.68;;;;;;;12.10;100.00;101517.31;6014124;23;20039;-73
2022/05/17 01:58:01;;;;;;;5.00;4.80;;;;;;;12.16;100.00;101530.22;6050870;23;20010;-74
2022/05/17 02:00:27;;;;;;;5.60;5.40;;;;;;;12.11;100.00;101526.09;6020333;23;20031;-73
2022/05/17 02:02:54;;;;;;;5.45;5.25;;;;;;;11.79;100.00;101473.13;6023763;23;20841;-72
2022/05/17 02:05:23;;;;;;;4.70;4.50;;;;;;;11.72;100.00;101471.69;6062895;23;20029;-74
2022/05/17 02:07:50;;;;;;;4.65;4.45;;;;;;;11.63;100.00;101469.47;6030216;23;20548;-74
2022/05/17 02:10:18;;;;;;;4.50;4.30;;;;;;;12.09;100.00;101539.31;6061211;23;20432;-74
2022/05/17 02:12:45;;;;;;;5.25;5.05;;;;;;;12.06;100.00;101530.69;6052852;23;20019;-72
2022/05/17 02:15:13;;;;;;;4.63;4.43;;;;;;;11.74;100.00;101486.47;6018800;23;20028;-73
2022/05/17 02:17:39;;;;;;;5.90;5.60;;;;;;;11.14;100.00;101406.75;6054032;23;20014;-74
2022/05/17 02:20:07;;;;;;;4.60;4.40;;;;;;;12.05;100.00;101536.91;6020947;23;20026;-73
2022/05/17 02:22:34;;;;;;;6.00;5.70;;;;;;;12.02;100.00;101544.91;6054024;23;20010;-73
2022/05/17 02:25:01;;;;;;;4.55;4.35;;;;;;;12.00;100.00;101549.41;6029968;23;20030;-73
2022/05/17 02:27:27;;;;;;;5.25;5.05;;;;;;;11.91;100.00;101553.31;6045759;23;20017;-73
2022/05/17 02:29:55;;;;;;;4.95;4.75;;;;;;;11.88;100.00;101556.00;6028787;23;20035;-72
2022/05/17 02:32:21;;;;;;;4.80;4.60;;;;;;;11.81;100.00;101584.38;6053337;23;20085;-71
2022/05/17 02:34:48;;;;;;;4.40;4.20;;;;;;;11.31;100.00;101483.09;6022534;23;20940;-74
2022/05/17 02:37:17;;;;;;;4.57;4.38;;;;;;;11.72;100.00;101555.81;6054959;23;20401;-72
2022/05/17 02:39:46;;;;;;;5.47;5.28;;;;;;;11.67;100.00;101555.19;6043670;23;20434;-73
2022/05/17 02:42:13;;;;;;;5.00;4.80;;;;;;;11.18;100.00;101476.63;6048257;23;20105;-72
2022/05/17 02:44:39;;;;;;;5.82;5.55;;;;;;;11.36;100.00;101507.38;6060537;23;20033;-72
2022/05/17 02:47:06;;;;;;;4.70;4.50;;;;;;;11.65;100.00;101557.88;6061414;23;20030;-72
2022/05/17 02:49:32;;;;;;;6.55;6.25;;;;;;;11.55;100.00;101551.31;6021234;23;20015;-74
2022/05/17 02:52:02;;;;;;;4.63;4.43;;;;;;;11.27;100.00;101497.28;6046039;23;20010;-72
2022/05/17 02:54:29;;;;;;;5.40;5.20;;;;;;;11.16;100.00;101481.09;6058543;23;20011;-73
2022/05/17 02:56:56;;;;;;;4.65;4.45;;;;;;;11.42;100.00;101519.41;6024162;23;20058;-71
2022/05/17 02:59:22;;;;;;;4.50;4.30;;;;;;;11.71;100.00;101564.66;6058403;23;20026;-73
2022/05/17 03:01:49;;;;;;;5.03;4.82;;;;;;;11.71;100.00;101562.88;6051103;23;20018;-74
2022/05/17 03:04:16;;;;;;;4.70;4.50;;;;;;;11.67;100.00;101552.56;6031256;23;20030;-73
2022/05/17 03:06:44;;;;;;;5.65;5.45;;;;;;;11.30;100.00;101499.75;6054657;23;20023;-72
2022/05/17 03:09:11;;;;;;;5.28;4.88;;;;;;;11.36;100.00;101512.63;6026648;23;20607;-73
2022/05/17 03:11:38;;;;;;;5.80;5.57;;;;;;;11.76;100.00;101573.19;6054924;23;20650;-75
2022/05/17 03:14:05;;;;;;;5.05;4.85;;;;;;;11.16;100.00;101470.59;6058679;23;20029;-73
2022/05/17 03:16:32;;;;;;;6.10;5.80;;;;;;;11.75;100.00;101582.00;6031514;23;20019;-74
2022/05/17 03:18:59;;;;;;;4.65;4.45;;;;;;;11.78;100.00;101572.19;6058341;23;20013;-74
2022/05/17 03:21:26;;;;;;;4.88;4.68;;;;;;;11.81;100.00;101578.22;6031459;23;20484;-73
2022/05/17 03:23:53;;;;;;;4.53;4.32;;;;;;;11.52;100.00;101525.13;6025120;23;20028;-74
2022/05/17 03:26:20;;;;;;;4.45;4.25;;;;;;;11.85;100.00;101578.06;6011581;23;20030;-75
2022/05/17 03:28:47;;;;;;;4.80;4.60;;;;;;;11.89;100.00;101582.28;6009234;23;20090;-74
2022/05/17 03:31:14;;;;;;;4.93;4.72;;;;;;;11.39;100.00;101493.28;6056252;23;20101;-73
2022/05/17 03:33:41;;;;;;;6.07;5.78;;;;;;;11.96;100.00;101596.03;6033419;23;20015;-73
2022/05/17 03:36:09;;;;;;;4.45;4.25;;;;;;;12.00;100.00;101588.84;6056088;23;20026;-74
2022/05/17 03:38:36;;;;;;;6.05;5.75;;;;;;;12.02;100.00;101592.28;5987091;23;20083;-75
2022/05/17 03:41:03;;;;;;;4.75;4.55;;;;;;;11.86;100.00;101571.84;6051347;23;20018;-73
2022/05/17 03:43:30;;;;;;;5.53;5.32;;;;;;;12.01;100.00;101591.44;6060234;23;20015;-73
2022/05/17 03:45:57;;;;;;;4.50;4.30;;;;;;;12.03;100.00;101591.34;6028829;23;20031;-74
2022/05/17 03:48:26;;;;;;;4.93;4.72;;;;;;;11.95;100.00;101579.38;6053617;23;20074;-71
2022/05/17 03:50:53;;;;;;;4.97;4.78;;;;;;;11.71;100.00;101531.31;6047432;23;20855;-75
2022/05/17 03:53:20;;;;;;;4.68;4.47;;;;;;;10.95;100.00;101393.56;6017601;23;20015;-72
2022/05/17 03:55:47;;;;;;;4.63;4.43;;;;;;;11.96;100.00;101551.31;6053924;23;20011;-74
2022/05/17 03:58:13;;;;;;;4.57;4.38;;;;;;;11.83;100.00;101510.66;6054209;23;20594;-74
2022/05/17 04:00:40;;;;;;;6.07;5.78;;;;;;;12.50;100.00;101606.78;6014362;23;20062;-72
2022/05/17 04:03:07;;;;;;;4.60;4.40;;;;;;;11.57;100.00;101433.78;6056944;23;20049;-73
2022/05/17 04:05:33;;;;;;;5.72;5.50;;;;;;;12.71;100.00;101599.69;6056358;23;20022;-72
2022/05/17 04:07:59;;;;;;;4.50;4.30;;;;;;;12.68;100.00;101529.56;6027925;23;20428;-73
2022/05/17 04:10:26;;;;;;;4.80;4.60;;;;;;;13.49;100.00;101603.84;6051969;23;20193;-74
2022/05/17 04:12:53;;;;;;;4.70;4.40;;;;;;;13.23;100.00;101517.25;6034149;23;20019;-72
2022/05/17 04:15:22;;;;;;;4.60;4.40;;;;;;;13.69;100.00;101594.94;6057333;23;20029;-75
2022/05/17 04:17:51;;;;;;;4.78;4.57;;;;;;;13.42;100.00;101547.06;6055748;23;20376;-76
2022/05/17 04:20:18;;;;;;;4.60;4.40;;;;;;;13.85;100.00;101600.28;6029002;23;20107;-74
2022/05/17 04:22:47;;;;;;;5.28;5.07;;;;;;;14.03;100.00;101602.88;6050038;23;20022;-75
2022/05/17 04:25:15;;;;;;;4.80;4.60;;;;;;;14.00;100.00;101606.53;6038118;23;20024;-75
2022/05/17 04:27:43;;;;;;;6.50;6.20;;;;;;;13.49;100.00;101543.19;6024361;23;20033;-73
2022/05/17 04:30:10;;;;;;;4.90;4.70;;;;;;;13.41;100.00;101552.41;6022785;23;20190;-75
2022/05/17 04:32:37;;;;;;;6.88;6.57;;;;;;;13.66;100.00;101578.41;6022094;23;20073;-75
2022/05/17 04:35:04;;;;;;;5.10;4.82;;;;;;;13.63;100.00;101608.44;6059085;23;20031;-74
2022/05/17 04:37:32;;;;;;;6.45;6.15;;;;;;;13.52;100.00;101603.69;6005433;23;20082;-72
2022/05/17 04:39:58;;;;;;;4.70;4.50;;;;;;;13.29;100.00;101552.13;6051294;23;20357;-73
2022/05/17 04:42:25;;;;;;;5.10;4.90;;;;;;;13.74;100.00;101603.44;6041697;23;20011;-73
2022/05/17 04:44:52;;;;;;;5.20;4.90;;;;;;;13.51;100.00;101570.34;6029198;23;20040;-72
2022/05/17 04:47:18;;;;;;;4.78;4.57;;;;;;;13.68;100.00;101606.41;6055392;23;20010;-72
2022/05/17 04:49:45;;;;;;;4.70;4.50;;;;;;;13.80;100.00;101606.72;6050194;23;20760;-72
2022/05/17 04:52:12;;;;;;;5.07;4.88;;;;;;;13.89;100.00;101607.09;6014709;23;20110;-74
2022/05/17 04:54:38;;;;;;;6.30;6.00;;;;;;;13.46;100.00;101527.53;6041704;23;20579;-74
2022/05/17 04:57:05;;;;;;;4.90;4.70;;;;;;;13.50;100.00;101531.72;6038764;23;20634;-74
2022/05/17 04:59:31;;;;;;;6.70;6.40;;;;;;;13.55;100.00;101537.63;6015010;23;20092;-74
2022/05/17 05:01:58;;;;;;;4.70;4.50;;;;;;;13.89;100.00;101601.84;6051259;23;20030;-73
2022/05/17 05:04:24;;;;;;;5.15;4.93;;;;;;;12.68;100.00;101418.94;6035241;23;20043;-73
2022/05/17 05:06:51;;;;;;;4.60;4.40;;;;;;;13.75;100.00;101610.44;6025180;23;20633;-71
2022/05/17 05:09:17;;;;;;;4.72;4.53;;;;;;;13.50;100.00;101565.16;6018701;23;20027;-72
2022/05/17 05:11:43;;;;;;;5.63;5.43;;;;;;;13.49;100.00;101545.84;6029341;23;20101;-72
2022/05/17 05:14:10;;;;;;;4.47;4.28;;;;;;;13.84;100.00;101584.53;6061384;23;20589;-73
2022/05/17 05:16:37;;;;;;;6.55;6.25;;;;;;;13.50;100.00;101531.72;6057449;23;20349;-74
2022/05/17 05:19:04;;;;;;;4.68;4.47;;;;;;;13.88;100.00;101604.53;6027567;23;20779;-74
2022/05/17 05:21:31;;;;;;;6.22;5.93;;;;;;;13.16;100.00;101478.03;6052243;23;20038;-72
2022/05/17 05:23:57;;;;;;;5.18;4.90;;;;;;;14.19;100.00;101627.53;6022194;23;20101;-72
2022/05/17 05:26:23;;;;;;;4.68;4.47;;;;;;;13.88;100.00;101567.59;6044472;23;20013;-71
2022/05/17 05:28:50;;;;;;;4.65;4.45;;;;;;;13.08;100.00;101448.56;6020820;23;20113;-72
2022/05/17 05:31:17;;;;;;;5.22;4.93;;;;;;;14.01;100.00;101583.63;6054634;23;20019;-72
2022/05/17 05:33:44;;;;;;;4.88;4.68;;;;;;;14.41;100.00;101634.31;6048484;23;20014;-70
2022/05/17 05:36:11;;;;;;;5.15;4.95;;;;;;;14.19;100.00;101560.69;6067942;23;20041;-74
2022/05/17 05:38:37;;;;;;;6.00;5.70;;;;;;;14.35;100.00;101567.72;6029087;23;20019;-73
2022/05/17 05:41:04;;;;;;;4.80;4.60;;;;;;;14.96;100.00;101647.22;6068293;23;20029;-73
2022/05/17 05:43:30;;;;;;;5.78;5.50;;;;;;;15.11;100.00;101650.78;6068684;23;20032;-72
2022/05/17 05:45:57;;;;;;;4.93;4.72;;;;;;;15.21;100.00;101656.41;6067046;23;20560;-71
2022/05/17 05:48:23;;;;;;;5.30;5.00;;;;;;;15.23;99.66;101647.44;6023719;23;20037;-72
2022/05/17 05:50:52;;;;;;;5.40;5.20;;;;;;;15.05;99.11;101607.03;6055109;23;20026;-72
2022/05/17 05:53:19;;;;;;;5.38;5.18;;;;;;;13.36;97.66;101325.91;6055260;23;20025;-74
2022/05/17 05:55:50;;;;;;;5.60;5.30;;;;;;;15.26;98.08;101647.28;6027078;23;20022;-71
2022/05/17 05:58:17;;;;;;;5.32;5.00;;;;;;;15.26;100.00;101644.66;6047541;23;20032;-72
2022/05/17 06:00:43;;;;;;;6.30;6.00;;;;;;;15.33;100.00;101643.38;6039646;23;20023;-72
2022/05/17 06:03:10;;;;;;;5.10;4.90;;;;;;;14.91;99.58;101554.09;6030331;23;20026;-72
2022/05/17 06:05:37;;;;;;;6.88;6.53;;;;;;;15.51;98.02;101643.22;6050604;23;20022;-72
2022/05/17 06:08:04;;;;;;;5.20;5.00;;;;;;;15.06;97.99;101547.94;6009958;23;20623;-73
2022/05/17 06:10:30;;;;;;;6.18;5.88;;;;;;;16.05;97.16;101637.47;6035068;23;20014;-72
2022/05/17 06:12:57;;;;;;;5.53;5.22;;;;;;;16.15;92.86;101617.41;6061740;23;20495;-70
2022/05/17 06:15:23;;;;;;;5.70;5.30;;;;;;;16.63;92.02;101638.31;6091723;23;20517;-72
2022/05/17 06:17:50;;;;;;;5.40;5.10;;;;;;;17.27;90.15;101633.38;6032231;23;20027;-71
2022/05/17 06:20:17;;;;;;;5.53;5.22;;;;;;;17.48;84.40;101597.47;6084096;23;20018;-71
2022/05/17 06:22:44;;;;;;;5.35;5.15;;;;;;;17.43;80.92;101566.88;6067989;23;20014;-71
2022/05/17 06:25:11;;;;;;;5.38;5.18;;;;;;;17.80;81.48;101621.00;6051909;23;20018;-71
2022/05/17 06:27:38;;;;;;;7.03;6.72;;;;;;;17.20;80.14;101563.97;6053288;23;20096;-70
2022/05/17 06:30:05;;;;;;;5.43;5.22;;;;;;;17.26;80.39;101573.28;6078095;23;20029;-73
2022/05/17 06:32:31;;;;;;;7.60;7.15;;;;;;;17.56;81.34;101650.03;6051015;23;20010;-73
2022/05/17 06:34:58;;;;;;;5.70;5.35;;;;;;;17.57;80.30;101608.41;6064792;23;20010;-70
2022/05/17 06:37:24;;;;;;;5.75;5.45;;;;;;;16.72;81.09;101527.28;6041157;23;20431;-71
2022/05/17 06:39:50;;;;;;;5.97;5.68;;;;;;;17.66;79.43;101650.25;6063449;23;20021;-71
2022/05/17 06:42:17;;;;;;;6.18;5.85;;;;;;;17.68;79.17;101643.03;6075716;23;20006;-72
2022/05/17 06:44:43;;;;;;;5.22;5.03;;;;;;;17.96;78.53;101646.50;6046089;23;20041;-71
2022/05/17 06:47:10;;;;;;;5.80;5.50;;;;;;;17.85;78.24;101616.22;6077254;23;20455;-72
2022/05/17 06:49:39;;;;;;;7.50;7.10;;;;;;;18.09;78.28;101658.00;6061330;23;20101;-71
2022/05/17 06:52:08;;;;;;;6.38;5.93;;;;;;;17.71;78.31;101565.84;6090066;23;20041;-71
2022/05/17 06:54:42;;;;;;;7.97;7.47;;;;;;;18.47;78.28;101649.19;6084831;23;20014;-71
2022/05/17 06:57:11;;;;;;;6.20;5.90;;;;;;;18.36;77.57;101574.66;6042533;23;20037;-73
2022/05/17 06:59:40;;;;;;;6.82;6.32;;;;;;;19.09;75.59;101651.00;6070661;23;20065;-71
2022/05/17 07:02:08;;;;;;;6.20;5.80;;;;;;;19.04;75.27;101624.72;6076376;23;20026;-71
2022/05/17 07:04:36;;;;;;;6.97;6.57;;;;;;;19.38;75.67;101664.78;6043860;23;20598;-72
2022/05/17 07:07:03;;;;;;;5.93;5.63;;;;;;;18.93;74.40;101574.94;6076312;23;20022;-72
2022/05/17 07:09:30;;;;;;;6.93;6.53;;;;;;;19.35;73.71;101651.72;6049421;23;20072;-73
2022/05/17 07:14:49;;;;;;;6.10;5.80;;;;;;;18.51;72.74;101574.41;6045904;23;20015;-72
2022/05/17 07:17:18;;;;;;;6.10;5.80;;;;;;;18.91;74.15;101616.78;6028758;23;20022;-72
2022/05/17 07:19:46;;;;;;;7.45;7.00;;;;;;;19.50;74.17;101671.91;6046044;23;20019;-72
2022/05/17 07:22:12;;;;;;;6.28;5.97;;;;;;;19.46;73.10;101633.13;6031337;23;20014;-71
2022/05/17 07:24:44;;;;;;;7.22;6.82;;;;;;;19.50;72.31;101615.13;6048497;23;20864;-73
2022/05/17 07:27:10;;;;;;;5.85;5.50;;;;;;;19.92;71.39;101682.09;6010012;23;20038;-73
2022/05/17 07:29:45;;;;;;;5.78;5.47;;;;;;;19.66;71.10;101626.28;6049293;23;20026;-74
2022/05/17 07:32:12;;;;;;;7.40;7.00;;;;;;;19.77;70.23;101617.53;6025921;23;20039;-71
2022/05/17 07:34:38;;;;;;;6.13;5.82;;;;;;;20.44;69.93;101669.22;6055660;23;20023;-70
2022/05/17 07:37:06;;;;;;;5.93;5.63;;;;;;;20.76;67.55;101679.22;6057790;23;20021;-71
2022/05/17 07:39:33;;;;;;;7.10;6.80;;;;;;;20.38;66.13;101616.41;6021603;23;20078;-72
2022/05/17 07:42:03;;;;;;;5.93;5.63;;;;;;;20.61;67.12;101678.63;6056846;23;20108;-71
2022/05/17 07:44:30;;;;;;;7.53;7.07;;;;;;;21.02;66.53;101677.94;6023414;23;20509;-74
2022/05/17 07:46:57;;;;;;;6.10;5.80;;;;;;;21.31;65.80;101682.75;6044547;23;20412;-73
2022/05/17 07:49:23;;;;;;;5.93;5.63;;;;;;;21.07;65.63;101643.75;6060586;23;20044;-72
2022/05/17 07:51:50;;;;;;;5.82;5.53;;;;;;;21.49;64.72;101686.59;6003593;23;20018;-72
2022/05/17 07:54:16;;;;;;;6.25;5.95;;;;;;;21.42;64.06;101680.03;6042543;23;20090;-71
2022/05/17 07:56:43;;;;;;;7.00;6.60;;;;;;;21.14;63.83;101689.44;6046266;23;20328;-70
2022/05/17 07:59:09;;;;;;;6.50;6.15;;;;;;;21.12;65.39;101688.72;6004849;23;20030;-73
2022/05/17 08:01:35;;;;;;;5.93;5.63;;;;;;;21.47;64.92;101688.56;6054886;23;20020;-71
2022/05/17 08:04:02;;;;;;;6.55;6.25;;;;;;;21.83;63.08;101666.88;6041041;23;20038;-73
2022/05/17 08:06:28;;;;;;;6.88;6.47;;;;;;;22.31;62.39;101695.78;6038488;23;20466;-70
2022/05/17 08:08:55;;;;;;;6.07;5.78;;;;;;;21.99;61.54;101651.25;6057693;23;20560;-72
2022/05/17 08:11:24;;;;;;;5.97;5.68;;;;;;;22.57;59.66;101653.41;6029422;23;20026;-73
2022/05/17 08:13:50;;;;;;;5.90;5.50;;;;;;;22.62;57.00;101602.16;6053579;23;20006;-72
2022/05/17 08:16:37;;;;;;;7.65;7.25;;;;;;;22.81;57.96;101655.75;6054748;23;20026;-72
2022/05/17 08:19:03;;;;;;;6.63;6.00;;;;;;;23.40;56.61;101685.31;6025567;23;20069;-71
2022/05/17 08:21:29;;;;;;;7.45;7.07;;;;;;;23.43;56.34;101675.19;6051979;23;20081;-73
2022/05/17 08:23:56;;;;;;;6.35;6.05;;;;;;;23.65;54.59;101681.22;6042723;23;20367;-72
2022/05/17 08:29:09;;;;;;;6.30;6.00;;;;;;;23.67;53.63;101652.44;6043803;23;20037;-71
2022/05/17 08:31:35;;;;;;;8.20;7.70;;;;;;;23.64;53.87;101685.75;6041065;23;20011;-71
2022/05/17 08:34:02;;;;;;;7.40;6.90;;;;;;;23.53;54.48;101691.25;6001619;23;20023;-71
2022/05/17 08:36:28;;;;;;;6.75;6.45;;;;;;;23.64;55.71;101703.66;6033206;23;20611;-72
2022/05/17 08:38:55;;;;;;;6.32;5.95;;;;;;;23.71;54.36;101619.00;6017543;23;20508;-71
2022/05/17 08:41:48;;;;;;;7.05;6.75;;;;;;;24.52;53.04;101690.16;6044925;23;20086;-72
2022/05/17 08:44:20;;;;;;;6.22;5.93;;;;;;;24.28;51.23;101619.03;6024969;23;20035;-72
2022/05/17 08:47:12;;;;;;;6.93;6.53;;;;;;;24.92;50.79;101686.28;6048771;23;20032;-70
2022/05/17 08:50:09;;;;;;;6.67;6.27;;;;;;;25.00;49.81;101687.22;6049369;23;20030;-72
2022/05/17 08:52:40;;;;;;;7.88;7.45;;;;;;;25.34;50.75;101685.75;6012632;23;20074;-72
2022/05/17 08:55:21;;;;;;;6.40;6.00;;;;;;;25.46;49.18;101685.38;6046067;23;20265;-72
2022/05/17 08:57:55;;;;;;;7.05;5.85;;;;;;;24.94;50.00;101686.97;6016910;23;20359;-72
2022/05/17 09:00:21;;;;;;;;;;;;;;;24.59;51.22;101686.72;6048338;23;20495;-73
2022/05/17 09:02:50;;;;;;;6.25;5.90;;;;;;;24.22;50.96;101627.69;6021746;23;19916;-71
2022/05/17 09:05:36;;;;;;;5.70;5.40;;;;;;;25.14;49.78;101683.19;6056327;23;20029;-72
2022/05/17 09:08:16;;;;;;;6.13;5.82;;;;;;;25.39;48.52;101683.47;6033213;23;20025;-71
2022/05/17 09:10:53;;;;;;;6.85;6.55;;;;;;;24.99;46.86;101607.66;6008144;23;20082;-71
2022/05/17 09:13:28;;;;;;;6.03;5.72;;;;;;;25.29;46.75;101629.78;6058040;23;20026;-70
2022/05/17 09:15:57;;;;;;;5.95;5.63;;;;;;;25.43;46.24;101682.16;6029818;23;20109;-72
2022/05/17 09:18:26;;;;;;;6.60;6.10;;;;;;;25.14;46.54;101618.72;6027075;23;20029;-72
2022/05/17 09:20:53;;;;;;;5.85;5.55;;;;;;;25.40;46.12;101695.91;6047312;23;20026;-73
2022/05/17 09:23:19;;;;;;;5.93;5.63;;;;;;;25.60;45.98;101684.00;6011241;23;20042;-71
2022/05/17 09:25:58;;;;;;;6.10;5.80;;;;;;;25.55;45.85;101683.59;6045924;23;20073;-71
2022/05/17 09:28:27;;;;;;;6.07;5.78;;;;;;;25.43;45.91;101653.44;6050507;23;20045;-71
2022/05/17 09:31:10;;;;;;;6.00;5.70;;;;;;;25.72;44.92;101646.97;6026487;23;20252;-73
2022/05/17 09:33:41;;;;;;;7.18;6.78;;;;;;;25.31;46.79;101683.38;6057589;23;20385;-71
2022/05/17 09:36:13;;;;;;;6.00;5.70;;;;;;;25.54;48.43;101670.31;6048637;23;20161;-72
2022/05/17 09:38:39;;;;;;;7.45;7.05;;;;;;;25.58;45.57;101634.06;6022500;23;20077;-72
2022/05/17 09:41:09;;;;;;;5.80;5.50;;;;;;;25.69;43.36;101636.50;6054769;23;20026;-71
2022/05/17 09:43:39;;;;;;;7.68;7.28;;;;;;;25.93;44.40;101673.53;6019582;23;20017;-71
2022/05/17 09:46:13;;;;;;;6.20;5.80;;;;;;;25.71;42.90;101682.06;6050897;23;20035;-71
2022/05/17 09:54:43;;;;;;;7.45;7.05;;;;;;;25.63;42.82;101672.09;6044453;23;20018;-73
2022/05/17 09:57:12;;;;;;;5.97;5.68;;;;;;;25.60;44.77;101680.44;6052467;23;20041;-72
2022/05/17 09:59:39;;;;;;;7.53;7.00;;;;;;;25.07;44.31;101623.84;6027067;23;20592;-73
2022/05/17 10:02:29;;;;;;;5.90;5.60;;;;;;;25.32;44.20;101610.69;6058705;23;20459;-71
2022/05/17 10:04:57;;;;;;;5.90;5.60;;;;;;;25.92;44.19;101661.09;6060103;23;20021;-73
2022/05/17 10:07:29;;;;;;;6.63;6.22;;;;;;;25.90;43.32;101667.56;6067644;23;20010;-72
2022/05/17 10:09:56;;;;;;;6.40;6.03;;;;;;;25.80;44.42;101654.22;6028942;23;20284;-71
2022/05/17 10:12:33;;;;;;;6.03;5.72;;;;;;;25.84;43.50;101647.56;6054793;23;20036;-71
2022/05/17 10:15:08;;;;;;;5.95;5.65;;;;;;;25.78;42.84;101602.44;6017138;23;20134;-73
2022/05/17 10:17:42;;;;;;;7.47;7.07;;;;;;;25.67;41.91;101601.72;6034340;23;20424;-71
2022/05/17 10:20:19;;;;;;;6.07;5.55;;;;;;;26.48;42.67;101653.50;6063669;23;20018;-73
2022/05/17 10:22:54;;;;;;;5.88;5.57;;;;;;;25.98;39.41;101652.41;6039520;23;20022;-72
2022/05/17 10:25:31;;;;;;;6.00;5.70;;;;;;;25.65;39.86;101637.81;6026799;23;20019;-72
2022/05/17 10:28:09;;;;;;;5.85;5.55;;;;;;;25.52;42.67;101651.69;6053032;23;20094;-71
2022/05/17 10:30:51;;;;;;;6.78;6.47;;;;;;;25.93;41.17;101641.25;6009973;23;20507;-72
2022/05/17 10:33:35;;;;;;;5.80;5.50;;;;;;;25.99;40.55;101646.00;6033596;23;20053;-73
2022/05/17 10:36:10;;;;;;;5.72;5.43;;;;;;;25.40;40.30;101621.50;6038095;23;20570;-71
2022/05/17 10:38:41;;;;;;;6.80;6.50;;;;;;;26.16;38.73;101644.25;6019954;23;20011;-71
2022/05/17 10:41:11;;;;;;;5.95;5.65;;;;;;;26.05;37.71;101639.97;6061406;23;20066;-72
2022/05/17 10:43:44;;;;;;;5.32;5.13;;;;;;;26.52;38.01;101636.03;6044951;23;20027;-72
2022/05/17 10:46:14;;;;;;;5.80;5.50;;;;;;;26.52;37.92;101630.66;6047580;23;20097;-72
2022/05/17 10:48:41;;;;;;;7.65;7.25;;;;;;;26.42;38.86;101621.84;6014427;23;20049;-72
2022/05/17 10:51:21;;;;;;;6.00;5.70;;;;;;;26.24;38.89;101614.72;6049412;23;20036;-72
2022/05/17 10:53:48;;;;;;;5.90;5.60;;;;;;;26.24;39.12;101620.09;6014966;23;20302;-71
2022/05/17 10:56:36;;;;;;;6.05;5.75;;;;;;;26.41;37.58;101625.53;6050729;23;20022;-73
2022/05/17 10:59:26;;;;;;;5.43;5.22;;;;;;;26.18;38.96;101609.97;6022474;23;20037;-72
2022/05/17 11:02:05;;;;;;;5.65;5.45;;;;;;;26.02;38.71;101624.16;6047975;23;20022;-71
2022/05/17 11:04:58;;;;;;;6.80;6.50;;;;;;;25.39;38.99;101455.88;6023225;23;20014;-75
2022/05/17 11:08:06;;;;;;;5.72;5.53;;;;;;;26.56;38.46;101618.53;6022514;23;20323;-72
2022/05/17 11:10:33;;;;;;;6.60;6.30;;;;;;;26.94;38.31;101612.78;6018348;23;20570;-72
2022/05/17 11:13:26;;;;;;;5.70;5.50;;;;;;;26.83;37.16;101613.94;6013901;23;20032;-72
2022/05/17 11:16:23;;;;;;;5.80;5.50;;;;;;;26.14;38.40;101610.44;6054298;23;20029;-71
2022/05/17 11:18:55;;;;;;;6.20;5.90;;;;;;;26.26;37.56;101595.72;5943618;23;20039;-72
2022/05/17 11:21:32;;;;;;;5.28;5.07;;;;;;;26.27;38.00;101543.56;6046283;23;20022;-71
2022/05/17 11:24:11;;;;;;;5.50;5.30;;;;;;;26.74;37.12;101605.00;6035087;23;20035;-71
2022/05/17 11:26:50;;;;;;;6.45;6.15;;;;;;;26.27;36.83;101613.53;6021415;23;20041;-72
2022/05/17 11:29:20;;;;;;;5.60;5.25;;;;;;;26.15;37.80;101587.91;6036653;23;20499;-73
2022/05/17 11:32:18;;;;;;;5.85;5.55;;;;;;;25.76;36.97;101602.63;6010807;23;20299;-72
2022/05/17 11:34:45;;;;;;;5.55;5.35;;;;;;;25.19;37.36;101529.59;6056007;23;20036;-72
2022/05/17 11:37:30;;;;;;;5.70;5.40;;;;;;;25.67;37.87;101592.81;6023028;23;20497;-72
2022/05/17 11:39:59;;;;;;;6.00;5.70;;;;;;;25.59;38.28;101590.91;6037546;23;20050;-71
2022/05/17 11:42:32;;;;;;;6.22;5.82;;;;;;;24.75;38.52;101409.56;6004998;23;20074;-72
2022/05/17 11:45:21;;;;;;;5.88;5.57;;;;;;;26.17;37.96;101588.59;6042579;23;20033;-71
2022/05/17 11:47:56;;;;;;;6.40;6.10;;;;;;;25.74;38.39;101541.94;6021343;23;20007;-72